sensor_id;sensor_type;location;lat;lon;timestamp;pressure;altitude;pressure_sealevel;temperature;humidity
75996;BME280;64681;49.738;9.004;2023-04-16T00:01:38;99482.91;;;9.02;83.98
75996;BME280;64681;49.738;9.004;2023-04-16T00:04:04;99488.31;;;9.32;82.87
75996;BME280;64681;49.738;9.004;2023-04-16T00:06:29;99482.88;;;8.94;83.42
75996;BME280;64681;49.738;9.004;2023-04-16T00:08:56;99485.88;;;8.83;84.46
75996;BME280;64681;49.738;9.004;2023-04-16T00:11:22;99483.03;;;9.06;83.83
75996;BME280;64681;49.738;9.004;2023-04-16T00:13:47;99490.09;;;9.11;83.27
75996;BME280;64681;49.738;9.004;2023-04-16T00:16:13;99489.63;;;9.00;83.43
75996;BME280;64681;49.738;9.004;2023-04-16T00:18:39;99482.88;;;9.11;83.30
75996;BME280;64681;49.738;9.004;2023-04-16T00:21:06;99483.66;;;9.03;84.00
75996;BME280;64681;49.738;9.004;2023-04-16T00:23:31;99478.66;;;9.01;83.34
75996;BME280;64681;49.738;9.004;2023-04-16T00:25:57;99492.91;;;8.97;83.39
75996;BME280;64681;49.738;9.004;2023-04-16T00:28:25;99481.94;;;9.07;83.81
75996;BME280;64681;49.738;9.004;2023-04-16T00:30:51;99482.44;;;8.92;83.68
75996;BME280;64681;49.738;9.004;2023-04-16T00:33:17;99488.53;;;9.10;83.34
75996;BME280;64681;49.738;9.004;2023-04-16T00:35:46;99491.31;;;9.22;82.80
75996;BME280;64681;49.738;9.004;2023-04-16T00:38:12;99470.22;;;8.91;83.99
75996;BME280;64681;49.738;9.004;2023-04-16T00:40:38;99487.44;;;8.93;83.90
75996;BME280;64681;49.738;9.004;2023-04-16T00:43:04;99485.72;;;8.89;83.86
75996;BME280;64681;49.738;9.004;2023-04-16T00:45:30;99497.28;;;8.93;83.50
75996;BME280;64681;49.738;9.004;2023-04-16T00:47:57;99491.97;;;8.66;84.64
75996;BME280;64681;49.738;9.004;2023-04-16T00:50:23;99494.34;;;8.94;84.02
75996;BME280;64681;49.738;9.004;2023-04-16T00:52:49;99494.63;;;8.93;83.47
75996;BME280;64681;49.738;9.004;2023-04-16T00:55:15;99489.78;;;9.03;82.85
75996;BME280;64681;49.738;9.004;2023-04-16T00:57:44;99492.28;;;8.74;84.12
75996;BME280;64681;49.738;9.004;2023-04-16T01:00:10;99495.28;;;8.81;83.86
75996;BME280;64681;49.738;9.004;2023-04-16T01:02:36;99495.13;;;8.77;83.55
75996;BME280;64681;49.738;9.004;2023-04-16T01:05:03;99498.25;;;8.79;84.15
75996;BME280;64681;49.738;9.004;2023-04-16T01:07:30;99497.78;;;8.86;83.85
75996;BME280;64681;49.738;9.004;2023-04-16T01:09:56;99492.47;;;8.60;84.83
75996;BME280;64681;49.738;9.004;2023-04-16T01:12:22;99493.41;;;8.64;84.84
75996;BME280;64681;49.738;9.004;2023-04-16T01:14:47;99504.06;;;8.99;83.61
75996;BME280;64681;49.738;9.004;2023-04-16T01:17:13;99499.53;;;8.64;84.13
75996;BME280;64681;49.738;9.004;2023-04-16T01:19:39;99487.31;;;8.63;84.97
75996;BME280;64681;49.738;9.004;2023-04-16T01:22:05;99499.97;;;8.93;83.81
75996;BME280;64681;49.738;9.004;2023-04-16T01:24:30;99498.56;;;8.78;84.34
75996;BME280;64681;49.738;9.004;2023-04-16T01:26:59;99499.19;;;8.92;83.99
75996;BME280;64681;49.738;9.004;2023-04-16T01:29:25;99507.19;;;8.83;84.04
75996;BME280;64681;49.738;9.004;2023-04-16T01:31:51;99499.19;;;8.75;84.70
75996;BME280;64681;49.738;9.004;2023-04-16T01:34:19;99501.84;;;8.92;84.27
75996;BME280;64681;49.738;9.004;2023-04-16T01:36:44;99509.03;;;9.09;83.05
75996;BME280;64681;49.738;9.004;2023-04-16T01:39:10;99507.47;;;9.08;83.40
75996;BME280;64681;49.738;9.004;2023-04-16T01:41:40;99508.91;;;8.97;83.58
75996;BME280;64681;49.738;9.004;2023-04-16T01:44:05;99513.41;;;9.14;83.15
75996;BME280;64681;49.738;9.004;2023-04-16T01:46:32;99507.28;;;9.31;82.62
75996;BME280;64681;49.738;9.004;2023-04-16T01:48:58;99510.25;;;9.29;82.32
75996;BME280;64681;49.738;9.004;2023-04-16T01:51:27;99505.75;;;9.12;82.44
75996;BME280;64681;49.738;9.004;2023-04-16T01:53:53;99507.63;;;9.21;82.52
75996;BME280;64681;49.738;9.004;2023-04-16T01:56:19;99506.38;;;9.18;82.59
75996;BME280;64681;49.738;9.004;2023-04-16T01:58:45;99509.34;;;9.16;82.91
75996;BME280;64681;49.738;9.004;2023-04-16T02:01:13;99510.28;;;9.21;83.04
75996;BME280;64681;49.738;9.004;2023-04-16T02:03:39;99509.63;;;9.32;82.27
75996;BME280;64681;49.738;9.004;2023-04-16T02:06:05;99517.94;;;9.31;82.78
75996;BME280;64681;49.738;9.004;2023-04-16T02:08:30;99520.63;;;9.13;82.59
75996;BME280;64681;49.738;9.004;2023-04-16T02:10:56;99517.06;;;8.92;82.59
75996;BME280;64681;49.738;9.004;2023-04-16T02:13:22;99516.56;;;9.16;81.81
75996;BME280;64681;49.738;9.004;2023-04-16T02:15:51;99511.41;;;9.02;82.61
75996;BME280;64681;49.738;9.004;2023-04-16T02:18:17;99517.03;;;9.18;81.12
75996;BME280;64681;49.738;9.004;2023-04-16T02:20:44;99517.81;;;9.18;81.84
75996;BME280;64681;49.738;9.004;2023-04-16T02:23:11;99523.47;;;8.91;82.27
75996;BME280;64681;49.738;9.004;2023-04-16T02:25:44;99515.16;;;9.10;82.15
75996;BME280;64681;49.738;9.004;2023-04-16T02:28:12;99526.75;;;8.87;82.99
75996;BME280;64681;49.738;9.004;2023-04-16T02:30:39;99524.59;;;8.81;83.08
75996;BME280;64681;49.738;9.004;2023-04-16T02:33:07;99518.00;;;8.87;83.22
75996;BME280;64681;49.738;9.004;2023-04-16T02:35:33;99523.31;;;8.87;83.49
75996;BME280;64681;49.738;9.004;2023-04-16T02:37:59;99525.84;;;8.83;83.34
75996;BME280;64681;49.738;9.004;2023-04-16T02:40:26;99523.63;;;9.03;83.04
75996;BME280;64681;49.738;9.004;2023-04-16T02:42:52;99524.72;;;9.11;81.94
75996;BME280;64681;49.738;9.004;2023-04-16T02:45:18;99525.34;;;8.90;83.13
75996;BME280;64681;49.738;9.004;2023-04-16T02:47:44;99525.03;;;8.83;83.07
75996;BME280;64681;49.738;9.004;2023-04-16T02:50:10;99534.13;;;8.99;82.36
75996;BME280;64681;49.738;9.004;2023-04-16T02:52:35;99525.34;;;8.81;82.66
75996;BME280;64681;49.738;9.004;2023-04-16T02:55:01;99527.22;;;8.72;83.65
75996;BME280;64681;49.738;9.004;2023-04-16T02:57:27;99533.34;;;8.81;83.52
75996;BME280;64681;49.738;9.004;2023-04-16T02:59:52;99522.06;;;8.76;83.61
75996;BME280;64681;49.738;9.004;2023-04-16T03:02:18;99541.78;;;9.18;81.21
75996;BME280;64681;49.738;9.004;2023-04-16T03:04:44;99539.31;;;8.87;83.00
75996;BME280;64681;49.738;9.004;2023-04-16T03:07:10;99540.38;;;8.95;82.41
75996;BME280;64681;49.738;9.004;2023-04-16T03:09:37;99528.31;;;8.97;83.10
75996;BME280;64681;49.738;9.004;2023-04-16T03:12:03;99545.06;;;8.54;84.12
75996;BME280;64681;49.738;9.004;2023-04-16T03:14:29;99541.47;;;8.59;84.57
75996;BME280;64681;49.738;9.004;2023-04-16T03:16:56;99531.94;;;8.75;83.04
75996;BME280;64681;49.738;9.004;2023-04-16T03:19:21;99529.91;;;8.81;83.23
75996;BME280;64681;49.738;9.004;2023-04-16T03:21:47;99535.50;;;8.53;84.97
75996;BME280;64681;49.738;9.004;2023-04-16T03:24:13;99533.97;;;8.87;83.37
75996;BME280;64681;49.738;9.004;2023-04-16T03:26:41;99535.84;;;8.69;84.14
75996;BME280;64681;49.738;9.004;2023-04-16T03:29:06;99543.53;;;8.70;84.07
75996;BME280;64681;49.738;9.004;2023-04-16T03:31:32;99543.69;;;8.92;83.72
75996;BME280;64681;49.738;9.004;2023-04-16T03:33:57;99545.41;;;9.05;82.95
75996;BME280;64681;49.738;9.004;2023-04-16T03:36:23;99539.25;;;9.22;81.90
75996;BME280;64681;49.738;9.004;2023-04-16T03:38:49;99546.31;;;9.09;81.68
75996;BME280;64681;49.738;9.004;2023-04-16T03:41:15;99539.44;;;8.99;82.37
75996;BME280;64681;49.738;9.004;2023-04-16T03:43:40;99555.69;;;9.50;80.12
75996;BME280;64681;49.738;9.004;2023-04-16T03:46:06;99555.41;;;9.26;81.46
75996;BME280;64681;49.738;9.004;2023-04-16T03:48:31;99552.44;;;8.92;82.25
75996;BME280;64681;49.738;9.004;2023-04-16T03:50:57;99554.31;;;8.83;82.86
75996;BME280;64681;49.738;9.004;2023-04-16T03:53:23;99560.75;;;8.73;83.81
75996;BME280;64681;49.738;9.004;2023-04-16T03:55:50;99559.03;;;9.03;82.61
75996;BME280;64681;49.738;9.004;2023-04-16T03:58:16;99559.03;;;8.86;83.27
75996;BME280;64681;49.738;9.004;2023-04-16T04:00:42;99555.09;;;9.01;82.81
75996;BME280;64681;49.738;9.004;2023-04-16T04:03:09;99555.91;;;9.01;81.95
75996;BME280;64681;49.738;9.004;2023-04-16T04:05:43;99552.44;;;8.75;83.44
75996;BME280;64681;49.738;9.004;2023-04-16T04:08:09;99568.25;;;8.62;83.92
75996;BME280;64681;49.738;9.004;2023-04-16T04:10:35;99566.84;;;8.74;83.29
75996;BME280;64681;49.738;9.004;2023-04-16T04:13:05;99566.69;;;8.79;83.37
75996;BME280;64681;49.738;9.004;2023-04-16T04:15:31;99568.91;;;9.03;81.97
75996;BME280;64681;49.738;9.004;2023-04-16T04:17:57;99557.16;;;8.95;83.06
75996;BME280;64681;49.738;9.004;2023-04-16T04:20:23;99566.06;;;9.34;80.88
75996;BME280;64681;49.738;9.004;2023-04-16T04:22:49;99554.78;;;9.20;81.91
75996;BME280;64681;49.738;9.004;2023-04-16T04:25:16;99572.00;;;8.70;82.65
75996;BME280;64681;49.738;9.004;2023-04-16T04:27:42;99578.13;;;8.62;83.58
75996;BME280;64681;49.738;9.004;2023-04-16T04:30:08;99574.09;;;8.33;84.26
75996;BME280;64681;49.738;9.004;2023-04-16T04:32:34;99567.78;;;8.60;83.76
75996;BME280;64681;49.738;9.004;2023-04-16T04:35:01;99572.66;;;8.84;83.20
75996;BME280;64681;49.738;9.004;2023-04-16T04:37:27;99569.50;;;8.56;82.91
75996;BME280;64681;49.738;9.004;2023-04-16T04:39:52;99577.69;;;9.03;82.37
75996;BME280;64681;49.738;9.004;2023-04-16T04:42:20;99576.25;;;8.97;81.29
75996;BME280;64681;49.738;9.004;2023-04-16T04:44:46;99580.50;;;9.16;81.30
75996;BME280;64681;49.738;9.004;2023-04-16T04:47:13;99573.44;;;9.20;81.24
75996;BME280;64681;49.738;9.004;2023-04-16T04:49:39;99577.84;;;9.16;81.20
75996;BME280;64681;49.738;9.004;2023-04-16T04:52:05;99591.94;;;8.99;81.11
75996;BME280;64681;49.738;9.004;2023-04-16T04:54:32;99587.41;;;9.17;81.09
75996;BME280;64681;49.738;9.004;2023-04-16T04:56:57;99579.69;;;8.89;80.97
75996;BME280;64681;49.738;9.004;2023-04-16T04:59:24;99597.25;;;9.25;80.94
75996;BME280;64681;49.738;9.004;2023-04-16T05:01:50;99588.81;;;9.14;81.24
75996;BME280;64681;49.738;9.004;2023-04-16T05:04:16;99594.28;;;8.92;81.27
75996;BME280;64681;49.738;9.004;2023-04-16T05:06:42;99605.09;;;8.95;81.71
75996;BME280;64681;49.738;9.004;2023-04-16T05:09:07;99594.28;;;9.00;80.26
75996;BME280;64681;49.738;9.004;2023-04-16T05:11:40;99603.66;;;8.89;81.60
75996;BME280;64681;49.738;9.004;2023-04-16T05:14:06;99607.13;;;9.25;80.95
75996;BME280;64681;49.738;9.004;2023-04-16T05:16:34;99607.28;;;9.02;81.27
75996;BME280;64681;49.738;9.004;2023-04-16T05:19:00;99609.94;;;8.93;81.16
75996;BME280;64681;49.738;9.004;2023-04-16T05:21:26;99607.59;;;9.09;80.81
75996;BME280;64681;49.738;9.004;2023-04-16T05:23:52;99605.25;;;9.25;80.70
75996;BME280;64681;49.738;9.004;2023-04-16T05:26:17;99624.84;;;9.03;80.20
75996;BME280;64681;49.738;9.004;2023-04-16T05:28:49;99613.84;;;9.05;80.35
75996;BME280;64681;49.738;9.004;2023-04-16T05:31:15;99623.09;;;9.25;80.18
75996;BME280;64681;49.738;9.004;2023-04-16T05:33:40;99619.53;;;9.12;81.02
75996;BME280;64681;49.738;9.004;2023-04-16T05:36:06;99628.75;;;9.32;80.08
75996;BME280;64681;49.738;9.004;2023-04-16T05:38:32;99628.44;;;9.33;79.38
75996;BME280;64681;49.738;9.004;2023-04-16T05:40:57;99638.78;;;9.35;78.93
75996;BME280;64681;49.738;9.004;2023-04-16T05:43:23;99643.19;;;9.40;78.95
75996;BME280;64681;49.738;9.004;2023-04-16T05:45:49;99640.34;;;9.27;79.90
75996;BME280;64681;49.738;9.004;2023-04-16T05:48:14;99651.00;;;9.10;80.29
75996;BME280;64681;49.738;9.004;2023-04-16T05:50:40;99644.44;;;9.16;80.18
75996;BME280;64681;49.738;9.004;2023-04-16T05:53:07;99646.63;;;9.05;79.82
75996;BME280;64681;49.738;9.004;2023-04-16T05:55:34;99645.22;;;8.99;80.27
75996;BME280;64681;49.738;9.004;2023-04-16T05:58:02;99643.75;;;8.93;80.72
75996;BME280;64681;49.738;9.004;2023-04-16T06:00:31;99644.75;;;9.14;80.22
75996;BME280;64681;49.738;9.004;2023-04-16T06:02:57;99645.03;;;9.13;80.60
75996;BME280;64681;49.738;9.004;2023-04-16T06:05:25;99654.59;;;9.14;80.81
75996;BME280;64681;49.738;9.004;2023-04-16T06:07:51;99648.34;;;9.36;80.25
75996;BME280;64681;49.738;9.004;2023-04-16T06:10:17;99642.22;;;9.35;79.62
75996;BME280;64681;49.738;9.004;2023-04-16T06:12:42;99641.59;;;9.39;79.10
75996;BME280;64681;49.738;9.004;2023-04-16T06:15:08;99653.19;;;9.43;79.38
75996;BME280;64681;49.738;9.004;2023-04-16T06:17:34;99651.03;;;9.36;79.23
75996;BME280;64681;49.738;9.004;2023-04-16T06:19:59;99651.81;;;9.19;79.61
75996;BME280;64681;49.738;9.004;2023-04-16T06:22:25;99658.69;;;9.46;80.06
75996;BME280;64681;49.738;9.004;2023-04-16T06:24:52;99654.91;;;9.47;78.36
75996;BME280;64681;49.738;9.004;2023-04-16T06:27:17;99634.09;;;9.41;78.68
75996;BME280;64681;49.738;9.004;2023-04-16T06:29:43;99641.31;;;9.49;77.50
75996;BME280;64681;49.738;9.004;2023-04-16T06:32:08;99659.63;;;9.59;78.14
75996;BME280;64681;49.738;9.004;2023-04-16T06:34:36;99663.84;;;9.78;77.30
75996;BME280;64681;49.738;9.004;2023-04-16T06:37:02;99666.22;;;9.35;78.61
75996;BME280;64681;49.738;9.004;2023-04-16T06:39:28;99667.94;;;9.05;79.73
75996;BME280;64681;49.738;9.004;2023-04-16T06:41:54;99661.50;;;9.24;79.23
75996;BME280;64681;49.738;9.004;2023-04-16T06:44:20;99670.59;;;9.58;78.26
75996;BME280;64681;49.738;9.004;2023-04-16T06:46:46;99659.00;;;9.62;77.29
75996;BME280;64681;49.738;9.004;2023-04-16T06:49:11;99674.69;;;9.73;77.14
75996;BME280;64681;49.738;9.004;2023-04-16T06:51:37;99676.25;;;9.56;78.24
75996;BME280;64681;49.738;9.004;2023-04-16T06:54:03;99666.19;;;9.62;78.07
75996;BME280;64681;49.738;9.004;2023-04-16T06:56:28;99667.94;;;9.58;78.45
75996;BME280;64681;49.738;9.004;2023-04-16T06:58:54;99664.97;;;9.50;78.17
75996;BME280;64681;49.738;9.004;2023-04-16T07:01:22;99670.75;;;9.61;78.23
75996;BME280;64681;49.738;9.004;2023-04-16T07:03:47;99673.59;;;9.65;76.78
75996;BME280;64681;49.738;9.004;2023-04-16T07:06:13;99675.78;;;9.63;77.53
75996;BME280;64681;49.738;9.004;2023-04-16T07:08:38;99687.72;;;9.48;77.04
75996;BME280;64681;49.738;9.004;2023-04-16T07:11:04;99676.53;;;9.02;78.90
75996;BME280;64681;49.738;9.004;2023-04-16T07:13:30;99691.44;;;9.29;79.38
75996;BME280;64681;49.738;9.004;2023-04-16T07:15:55;99676.88;;;9.27;79.44
75996;BME280;64681;49.738;9.004;2023-04-16T07:18:21;99684.06;;;9.70;77.68
75996;BME280;64681;49.738;9.004;2023-04-16T07:20:47;99687.38;;;9.85;77.00
75996;BME280;64681;49.738;9.004;2023-04-16T07:23:12;99673.56;;;9.74;77.92
75996;BME280;64681;49.738;9.004;2023-04-16T07:25:38;99688.63;;;9.78;78.30
75996;BME280;64681;49.738;9.004;2023-04-16T07:28:04;99687.41;;;9.41;79.66
75996;BME280;64681;49.738;9.004;2023-04-16T07:30:30;99689.13;;;9.72;77.90
75996;BME280;64681;49.738;9.004;2023-04-16T07:32:59;99691.41;;;10.00;76.60
75996;BME280;64681;49.738;9.004;2023-04-16T07:35:24;99686.44;;;9.63;77.47
75996;BME280;64681;49.738;9.004;2023-04-16T07:37:50;99693.66;;;9.62;78.37
75996;BME280;64681;49.738;9.004;2023-04-16T07:40:15;99689.88;;;9.55;78.18
75996;BME280;64681;49.738;9.004;2023-04-16T07:42:41;99703.03;;;9.16;80.38
75996;BME280;64681;49.738;9.004;2023-04-16T07:45:08;99698.44;;;8.90;81.68
75996;BME280;64681;49.738;9.004;2023-04-16T07:47:33;99709.47;;;9.15;80.96
75996;BME280;64681;49.738;9.004;2023-04-16T07:49:59;99693.34;;;9.29;80.10
75996;BME280;64681;49.738;9.004;2023-04-16T07:52:24;99705.41;;;9.61;78.67
75996;BME280;64681;49.738;9.004;2023-04-16T07:54:52;99703.53;;;9.44;79.60
75996;BME280;64681;49.738;9.004;2023-04-16T07:57:17;99703.03;;;9.25;80.47
75996;BME280;64681;49.738;9.004;2023-04-16T07:59:43;99710.25;;;9.33;80.52
75996;BME280;64681;49.738;9.004;2023-04-16T08:02:14;99709.78;;;9.75;78.85
75996;BME280;64681;49.738;9.004;2023-04-16T08:04:41;99721.25;;;9.31;80.58
75996;BME280;64681;49.738;9.004;2023-04-16T08:07:07;99719.84;;;9.25;80.44
75996;BME280;64681;49.738;9.004;2023-04-16T08:09:33;99718.91;;;9.30;80.75
75996;BME280;64681;49.738;9.004;2023-04-16T08:12:00;99719.38;;;9.67;79.26
75996;BME280;64681;49.738;9.004;2023-04-16T08:14:26;99727.38;;;9.58;79.37
75996;BME280;64681;49.738;9.004;2023-04-16T08:16:51;99739.59;;;9.33;80.59
75996;BME280;64681;49.738;9.004;2023-04-16T08:19:17;99740.38;;;9.51;79.72
75996;BME280;64681;49.738;9.004;2023-04-16T08:21:43;99733.94;;;9.52;79.91
75996;BME280;64681;49.738;9.004;2023-04-16T08:24:08;99735.81;;;9.34;81.73
75996;BME280;64681;49.738;9.004;2023-04-16T08:26:34;99744.28;;;9.36;81.61
75996;BME280;64681;49.738;9.004;2023-04-16T08:28:59;99741.97;;;9.43;80.58
75996;BME280;64681;49.738;9.004;2023-04-16T08:31:25;99746.19;;;9.53;80.33
75996;BME280;64681;49.738;9.004;2023-04-16T08:33:50;99747.44;;;9.47;80.09
75996;BME280;64681;49.738;9.004;2023-04-16T08:36:16;99746.66;;;9.46;80.24
75996;BME280;64681;49.738;9.004;2023-04-16T08:38:41;99760.13;;;9.41;80.83
75996;BME280;64681;49.738;9.004;2023-04-16T08:41:11;99762.34;;;9.48;80.87
75996;BME280;64681;49.738;9.004;2023-04-16T08:43:43;99749.94;;;9.52;80.45
75996;BME280;64681;49.738;9.004;2023-04-16T08:46:10;99752.63;;;9.52;81.87
75996;BME280;64681;49.738;9.004;2023-04-16T08:48:36;99756.22;;;9.74;79.53
75996;BME280;64681;49.738;9.004;2023-04-16T08:51:02;99761.72;;;9.95;78.19
75996;BME280;64681;49.738;9.004;2023-04-16T08:53:56;99763.63;;;9.94;78.68
75996;BME280;64681;49.738;9.004;2023-04-16T08:56:25;99772.22;;;9.91;79.05
75996;BME280;64681;49.738;9.004;2023-04-16T08:58:54;99764.38;;;9.69;80.46
75996;BME280;64681;49.738;9.004;2023-04-16T09:01:20;99767.06;;;9.86;79.51
75996;BME280;64681;49.738;9.004;2023-04-16T09:03:47;99764.38;;;9.69;80.45
75996;BME280;64681;49.738;9.004;2023-04-16T09:06:14;99774.91;;;9.82;80.17
75996;BME280;64681;49.738;9.004;2023-04-16T09:08:43;99772.88;;;9.88;80.22
75996;BME280;64681;49.738;9.004;2023-04-16T09:11:12;99781.94;;;10.05;79.91
75996;BME280;64681;49.738;9.004;2023-04-16T09:13:38;99775.69;;;9.74;80.54
75996;BME280;64681;49.738;9.004;2023-04-16T09:16:06;99776.78;;;9.64;80.51
75996;BME280;64681;49.738;9.004;2023-04-16T09:18:31;99779.75;;;9.89;79.86
75996;BME280;64681;49.738;9.004;2023-04-16T09:20:57;99781.97;;;9.96;80.38
75996;BME280;64681;49.738;9.004;2023-04-16T09:23:23;99777.25;;;9.84;80.18
75996;BME280;64681;49.738;9.004;2023-04-16T09:25:49;99773.31;;;9.55;81.00
75996;BME280;64681;49.738;9.004;2023-04-16T09:28:44;99793.88;;;9.63;81.75
75996;BME280;64681;49.738;9.004;2023-04-16T09:31:12;99782.44;;;9.72;80.59
75996;BME280;64681;49.738;9.004;2023-04-16T09:33:38;99794.66;;;9.90;80.57
75996;BME280;64681;49.738;9.004;2023-04-16T09:36:04;99797.03;;;10.01;78.75
75996;BME280;64681;49.738;9.004;2023-04-16T09:38:46;99794.50;;;9.60;80.61
75996;BME280;64681;49.738;9.004;2023-04-16T09:41:13;99795.75;;;9.54;82.56
75996;BME280;64681;49.738;9.004;2023-04-16T09:46:22;99799.38;;;10.02;79.53
75996;BME280;64681;49.738;9.004;2023-04-16T09:48:48;99788.88;;;9.97;79.70
75996;BME280;64681;49.738;9.004;2023-04-16T09:51:14;99792.00;;;9.90;79.95
75996;BME280;64681;49.738;9.004;2023-04-16T09:53:39;99802.06;;;9.93;79.81
75996;BME280;64681;49.738;9.004;2023-04-16T09:56:05;99805.97;;;10.05;79.71
75996;BME280;64681;49.738;9.004;2023-04-16T09:58:31;99794.84;;;10.03;80.55
75996;BME280;64681;49.738;9.004;2023-04-16T10:01:01;99800.81;;;9.91;80.36
75996;BME280;64681;49.738;9.004;2023-04-16T10:03:33;99801.41;;;10.14;80.11
75996;BME280;64681;49.738;9.004;2023-04-16T10:06:21;99803.31;;;10.13;80.12
75996;BME280;64681;49.738;9.004;2023-04-16T10:08:46;99805.63;;;10.33;78.57
75996;BME280;64681;49.738;9.004;2023-04-16T10:11:13;99805.50;;;10.38;79.35
75996;BME280;64681;49.738;9.004;2023-04-16T10:13:39;99810.19;;;10.50;79.20
75996;BME280;64681;49.738;9.004;2023-04-16T10:16:06;99800.63;;;10.40;79.24
75996;BME280;64681;49.738;9.004;2023-04-16T10:18:37;99807.19;;;10.51;79.18
75996;BME280;64681;49.738;9.004;2023-04-16T10:21:06;99807.22;;;10.42;79.33
75996;BME280;64681;49.738;9.004;2023-04-16T10:23:33;99821.75;;;10.71;78.32
75996;BME280;64681;49.738;9.004;2023-04-16T10:26:00;99818.25;;;10.80;77.78
75996;BME280;64681;49.738;9.004;2023-04-16T10:28:27;99819.44;;;11.00;77.47
75996;BME280;64681;49.738;9.004;2023-04-16T10:30:58;99816.31;;;10.98;76.71
75996;BME280;64681;49.738;9.004;2023-04-16T10:33:30;99823.13;;;10.86;77.48
75996;BME280;64681;49.738;9.004;2023-04-16T10:36:14;99824.78;;;11.00;77.56
75996;BME280;64681;49.738;9.004;2023-04-16T10:38:45;99824.31;;;10.98;76.97
75996;BME280;64681;49.738;9.004;2023-04-16T10:41:11;99820.97;;;10.62;77.73
75996;BME280;64681;49.738;9.004;2023-04-16T10:43:43;99826.94;;;10.76;78.01
75996;BME280;64681;49.738;9.004;2023-04-16T10:46:29;99825.03;;;10.77;77.91
75996;BME280;64681;49.738;9.004;2023-04-16T10:49:01;99830.97;;;11.21;75.52
75996;BME280;64681;49.738;9.004;2023-04-16T10:53:55;99832.41;;;10.80;77.37
75996;BME280;64681;49.738;9.004;2023-04-16T10:56:25;99829.91;;;10.84;77.65
75996;BME280;64681;49.738;9.004;2023-04-16T10:58:53;99834.84;;;11.03;77.92
75996;BME280;64681;49.738;9.004;2023-04-16T11:01:44;99838.63;;;11.02;77.59
75996;BME280;64681;49.738;9.004;2023-04-16T11:10:07;99833.00;;;10.86;78.89
75996;BME280;64681;49.738;9.004;2023-04-16T11:12:38;99835.00;;;11.06;77.68
75996;BME280;64681;49.738;9.004;2023-04-16T11:15:09;99832.53;;;10.92;78.27
75996;BME280;64681;49.738;9.004;2023-04-16T11:17:46;99841.88;;;11.07;78.27
75996;BME280;64681;49.738;9.004;2023-04-16T11:20:20;99830.00;;;10.96;77.68
75996;BME280;64681;49.738;9.004;2023-04-16T11:22:51;99832.91;;;11.12;76.92
75996;BME280;64681;49.738;9.004;2023-04-16T11:25:25;99839.94;;;11.26;77.29
75996;BME280;64681;49.738;9.004;2023-04-16T11:27:52;99833.13;;;10.98;78.14
75996;BME280;64681;49.738;9.004;2023-04-16T11:32:55;99830.28;;;11.03;78.55
75996;BME280;64681;49.738;9.004;2023-04-16T11:35:20;99836.34;;;11.21;78.01
75996;BME280;64681;49.738;9.004;2023-04-16T11:37:46;99842.28;;;11.27;78.35
75996;BME280;64681;49.738;9.004;2023-04-16T11:40:15;99838.94;;;10.53;80.06
75996;BME280;64681;49.738;9.004;2023-04-16T11:42:41;99823.91;;;10.87;78.67
75996;BME280;64681;49.738;9.004;2023-04-16T11:45:09;99834.91;;;10.85;79.53
75996;BME280;64681;49.738;9.004;2023-04-16T11:47:50;99837.19;;;11.04;79.19
75996;BME280;64681;49.738;9.004;2023-04-16T11:50:23;99845.44;;;11.20;79.37
75996;BME280;64681;49.738;9.004;2023-04-16T11:52:51;99837.03;;;11.39;78.18
75996;BME280;64681;49.738;9.004;2023-04-16T11:55:18;99844.88;;;11.66;76.82
75996;BME280;64681;49.738;9.004;2023-04-16T11:57:44;99839.28;;;11.59;76.45
75996;BME280;64681;49.738;9.004;2023-04-16T12:00:10;99842.91;;;11.33;78.03
75996;BME280;64681;49.738;9.004;2023-04-16T12:05:42;99834.63;;;11.17;76.32
75996;BME280;64681;49.738;9.004;2023-04-16T12:08:09;99840.53;;;11.31;77.40
75996;BME280;64681;49.738;9.004;2023-04-16T12:10:51;99854.00;;;11.05;78.21
75996;BME280;64681;49.738;9.004;2023-04-16T12:13:18;99848.06;;;10.99;79.18
75996;BME280;64681;49.738;9.004;2023-04-16T12:15:49;99844.50;;;10.86;80.17
75996;BME280;64681;49.738;9.004;2023-04-16T12:18:15;99839.59;;;10.88;80.19
75996;BME280;64681;49.738;9.004;2023-04-16T12:20:42;99842.34;;;10.62;80.40
75996;BME280;64681;49.738;9.004;2023-04-16T12:23:09;99843.69;;;10.86;79.67
75996;BME280;64681;49.738;9.004;2023-04-16T12:25:35;99850.44;;;10.92;79.81
75996;BME280;64681;49.738;9.004;2023-04-16T12:28:01;99852.19;;;10.88;79.39
75996;BME280;64681;49.738;9.004;2023-04-16T12:30:27;99845.00;;;10.62;80.60
75996;BME280;64681;49.738;9.004;2023-04-16T12:33:16;99848.59;;;10.75;79.25
75996;BME280;64681;49.738;9.004;2023-04-16T12:35:42;99852.91;;;10.50;80.42
75996;BME280;64681;49.738;9.004;2023-04-16T12:38:08;99857.75;;;10.65;80.40
75996;BME280;64681;49.738;9.004;2023-04-16T12:40:34;99859.81;;;10.51;80.08
75996;BME280;64681;49.738;9.004;2023-04-16T12:43:01;99858.53;;;10.30;81.08
75996;BME280;64681;49.738;9.004;2023-04-16T12:45:27;99863.41;;;10.55;80.63
75996;BME280;64681;49.738;9.004;2023-04-16T12:47:52;99853.44;;;10.90;78.81
75996;BME280;64681;49.738;9.004;2023-04-16T12:50:18;99861.22;;;10.04;83.11
75996;BME280;64681;49.738;9.004;2023-04-16T12:52:44;99860.91;;;10.14;81.40
75996;BME280;64681;49.738;9.004;2023-04-16T12:55:10;99858.09;;;10.37;81.79
75996;BME280;64681;49.738;9.004;2023-04-16T12:57:36;99859.66;;;10.38;80.60
75996;BME280;64681;49.738;9.004;2023-04-16T13:00:01;99860.59;;;10.34;81.48
75996;BME280;64681;49.738;9.004;2023-04-16T13:02:30;99861.53;;;10.55;79.68
75996;BME280;64681;49.738;9.004;2023-04-16T13:04:56;99857.91;;;10.60;80.58
75996;BME280;64681;49.738;9.004;2023-04-16T13:07:23;99856.59;;;10.84;78.67
75996;BME280;64681;49.738;9.004;2023-04-16T13:09:49;99858.38;;;11.09;78.56
75996;BME280;64681;49.738;9.004;2023-04-16T13:12:14;99855.31;;;11.29;75.93
75996;BME280;64681;49.738;9.004;2023-04-16T13:14:40;99860.53;;;11.25;77.46
75996;BME280;64681;49.738;9.004;2023-04-16T13:17:06;99855.25;;;11.46;75.30
75996;BME280;64681;49.738;9.004;2023-04-16T13:19:32;99855.03;;;11.21;77.09
75996;BME280;64681;49.738;9.004;2023-04-16T13:21:57;99867.97;;;11.49;75.98
75996;BME280;64681;49.738;9.004;2023-04-16T13:24:23;99855.94;;;11.34;76.34